createdAt,value
2018-06-28T00:02:22.401Z,101806.59
2018-06-28T00:04:50.636Z,101804.77
2018-06-28T00:07:18.913Z,101802.53
2018-06-28T00:09:47.165Z,101802.35
2018-06-28T00:12:15.389Z,101805.70
2018-06-28T00:14:43.649Z,101810.55
2018-06-28T00:17:11.929Z,101807.38
2018-06-28T00:19:40.208Z,101811.39
2018-06-28T00:22:08.505Z,101813.21
2018-06-28T00:24:36.763Z,101807.52
2018-06-28T00:27:04.985Z,101807.16
2018-06-28T00:29:33.233Z,101808.63
2018-06-28T00:32:01.522Z,101810.48
2018-06-28T00:34:29.809Z,101809.13
2018-06-28T00:36:58.042Z,101810.63
2018-06-28T00:39:26.318Z,101805.92
2018-06-28T00:41:54.549Z,101809.59
2018-06-28T00:44:22.820Z,101805.39
2018-06-28T00:46:51.077Z,101798.51
2018-06-28T00:49:19.342Z,101801.38
2018-06-28T00:51:47.587Z,101804.56
2018-06-28T00:54:15.880Z,101802.70
2018-06-28T00:56:44.119Z,101805.69
2018-06-28T00:59:12.448Z,101803.33
2018-06-28T01:01:40.676Z,101802.80
2018-06-28T01:04:08.937Z,101806.83
2018-06-28T01:06:37.193Z,101793.89
2018-06-28T01:09:08.597Z,101797.85
2018-06-28T01:11:37.136Z,101792.50
2018-06-28T01:14:05.409Z,101796.48
2018-06-28T01:16:33.669Z,101798.30
2018-06-28T01:19:01.934Z,101802.63
2018-06-28T01:21:30.181Z,101796.77
2018-06-28T01:23:58.415Z,101793.06
2018-06-28T01:26:26.621Z,101795.86
2018-06-28T01:28:54.849Z,101795.33
2018-06-28T01:31:23.117Z,101801.34
2018-06-28T01:33:51.345Z,101797.31
2018-06-28T01:36:19.581Z,101804.32
2018-06-28T01:38:47.837Z,101796.41
2018-06-28T01:41:16.103Z,101801.26
2018-06-28T01:43:45.385Z,101795.17
2018-06-28T01:46:13.882Z,101797.81
2018-06-28T01:48:42.145Z,101794.60
2018-06-28T01:51:10.462Z,101798.45
2018-06-28T01:53:38.688Z,101801.78
2018-06-28T01:56:06.973Z,101798.07
2018-06-28T01:58:35.260Z,101800.90
2018-06-28T02:01:03.561Z,101800.02
2018-06-28T02:03:31.840Z,101800.84
2018-06-28T02:06:00.095Z,101798.12
2018-06-28T02:08:28.354Z,101793.19
2018-06-28T02:10:56.632Z,101793.00
2018-06-28T02:13:24.869Z,101792.80
2018-06-28T02:15:53.141Z,101795.31
2018-06-28T02:18:21.428Z,101790.27
2018-06-28T02:20:49.660Z,101785.22
2018-06-28T02:23:17.890Z,101789.87
2018-06-28T02:25:46.161Z,101787.15
2018-06-28T02:28:14.381Z,101782.97
2018-06-28T02:30:42.615Z,101779.61
2018-06-28T02:33:10.878Z,101787.63
2018-06-28T02:35:39.101Z,101784.76
2018-06-28T02:38:07.394Z,101789.91
2018-06-28T02:40:35.681Z,101788.73
2018-06-28T02:43:03.913Z,101797.74
2018-06-28T02:45:32.121Z,101795.52
2018-06-28T02:48:00.389Z,101800.55
2018-06-28T02:50:28.683Z,101795.20
2018-06-28T02:52:57.019Z,101798.19
2018-06-28T02:55:25.241Z,101803.53
2018-06-28T02:57:53.488Z,101798.86
2018-06-28T03:00:21.739Z,101794.16
2018-06-28T03:02:49.994Z,101795.14
2018-06-28T03:05:18.253Z,101790.29
2018-06-28T03:07:46.473Z,101792.97
2018-06-28T03:10:14.723Z,101791.78
2018-06-28T03:12:42.945Z,101794.11
2018-06-28T03:15:11.220Z,101796.92
2018-06-28T03:17:39.480Z,101794.75
2018-06-28T03:20:07.702Z,101798.61
2018-06-28T03:22:35.986Z,101792.13
2018-06-28T03:25:04.265Z,101791.98
2018-06-28T03:27:32.540Z,101798.19
2018-06-28T03:30:00.753Z,101801.26
2018-06-28T03:32:28.985Z,101790.95
2018-06-28T03:34:57.228Z,101791.50
2018-06-28T03:37:25.493Z,101800.03
2018-06-28T03:39:53.733Z,101796.02
2018-06-28T03:42:22.020Z,101793.84
2018-06-28T03:44:50.233Z,101799.39
2018-06-28T03:47:18.466Z,101800.08
2018-06-28T03:49:46.704Z,101803.25
2018-06-28T03:52:14.961Z,101800.73
2018-06-28T03:54:43.223Z,101803.36
2018-06-28T03:57:11.477Z,101797.84
2018-06-28T03:59:39.745Z,101796.65
2018-06-28T04:02:07.950Z,101793.92
2018-06-28T04:04:36.246Z,101798.93
2018-06-28T04:07:04.575Z,101804.92
2018-06-28T04:09:32.917Z,101807.75
2018-06-28T04:12:01.189Z,101806.91
2018-06-28T04:14:29.511Z,101812.25
2018-06-28T04:16:57.781Z,101805.56
2018-06-28T04:19:26.019Z,101814.44
2018-06-28T04:21:54.364Z,101815.08
2018-06-28T04:24:22.649Z,101813.25
2018-06-28T04:26:50.880Z,101823.66
2018-06-28T04:29:19.141Z,101818.50
2018-06-28T04:31:47.445Z,101826.87
2018-06-28T04:34:15.713Z,101818.00
2018-06-28T04:36:43.988Z,101822.36
2018-06-28T04:39:13.414Z,101816.66
2018-06-28T04:41:41.857Z,101816.66
2018-06-28T04:44:10.097Z,101820.03
2018-06-28T04:46:38.347Z,101827.07
2018-06-28T04:49:06.711Z,101826.58
2018-06-28T04:51:35.850Z,101827.42
2018-06-28T04:54:04.443Z,101830.29
2018-06-28T04:56:32.824Z,101825.09
2018-06-28T04:59:01.035Z,101824.09
2018-06-28T05:01:29.287Z,101817.76
2018-06-28T05:03:57.514Z,101821.77
2018-06-28T05:06:25.737Z,101820.43
2018-06-28T05:08:53.979Z,101818.59
2018-06-28T05:11:22.212Z,101820.25
2018-06-28T05:13:50.461Z,101808.70
2018-06-28T05:16:18.741Z,101812.22
2018-06-28T05:18:47.000Z,101816.23
2018-06-28T05:21:15.292Z,101804.05
2018-06-28T05:23:43.530Z,101807.07
2018-06-28T05:26:11.853Z,101805.58
2018-06-28T05:28:40.380Z,101808.95
2018-06-28T05:31:08.797Z,101806.97
2018-06-28T05:33:37.072Z,101808.35
2018-06-28T05:36:05.301Z,101809.54
2018-06-28T05:38:33.560Z,101810.20
2018-06-28T05:41:01.866Z,101805.20
2018-06-28T05:43:30.113Z,101801.87
2018-06-28T05:45:58.341Z,101800.88
2018-06-28T05:48:26.555Z,101800.58
2018-06-28T05:50:54.784Z,101807.50
2018-06-28T05:53:23.023Z,101807.34
2018-06-28T05:55:51.301Z,101809.37
2018-06-28T05:58:19.578Z,101803.34
2018-06-28T06:00:47.821Z,101802.20
2018-06-28T06:03:16.121Z,101797.69
2018-06-28T06:05:44.379Z,101801.40
2018-06-28T06:08:12.673Z,101804.80
2018-06-28T06:10:40.965Z,101804.31
2018-06-28T06:13:09.202Z,101800.53
2018-06-28T06:15:37.418Z,101802.25
2018-06-28T06:18:06.105Z,101805.35
2018-06-28T06:20:34.362Z,101806.39
2018-06-28T06:23:02.633Z,101807.11
2018-06-28T06:25:30.874Z,101806.80
2018-06-28T06:27:59.135Z,101809.39
2018-06-28T06:30:27.425Z,101804.37
2018-06-28T06:32:55.828Z,101803.62
2018-06-28T06:35:24.177Z,101804.80
2018-06-28T06:37:52.681Z,101810.34
2018-06-28T06:40:20.924Z,101802.80
2018-06-28T06:42:49.176Z,101802.33
2018-06-28T06:45:17.391Z,101805.34
2018-06-28T06:47:45.996Z,101794.65
2018-06-28T06:50:14.307Z,101800.34
2018-06-28T06:52:42.549Z,101802.21
2018-06-28T06:55:10.796Z,101797.69
2018-06-28T06:57:39.206Z,101801.08
2018-06-28T07:00:07.465Z,101802.44
2018-06-28T07:02:35.731Z,101799.26
2018-06-28T07:05:04.114Z,101796.91
2018-06-28T07:07:32.377Z,101800.61
2018-06-28T07:10:00.641Z,101804.49
2018-06-28T07:12:28.885Z,101804.64
2018-06-28T07:14:57.246Z,101808.50
2018-06-28T07:17:25.501Z,101807.52
2018-06-28T07:19:53.730Z,101806.86
2018-06-28T07:22:21.993Z,101798.83
2018-06-28T07:24:50.217Z,101802.34
2018-06-28T07:27:18.438Z,101802.86
2018-06-28T07:29:46.729Z,101807.77
2018-06-28T07:32:15.025Z,101806.95
2018-06-28T07:34:43.262Z,101799.55
2018-06-28T07:37:11.500Z,101798.22
2018-06-28T07:39:39.721Z,101799.41
2018-06-28T07:42:08.094Z,101806.78
2018-06-28T07:44:36.312Z,101803.44
2018-06-28T07:47:04.601Z,101803.28
2018-06-28T07:49:33.035Z,101799.91
2018-06-28T07:52:01.249Z,101796.22
2018-06-28T07:54:29.493Z,101798.41
2018-06-28T07:56:57.733Z,101793.85
2018-06-28T07:59:26.047Z,101796.20
2018-06-28T08:01:54.636Z,101803.59
2018-06-28T08:04:22.913Z,101800.23
2018-06-28T08:06:51.207Z,101796.21
2018-06-28T08:09:25.053Z,101790.47
2018-06-28T08:11:53.297Z,101794.67
2018-06-28T08:14:21.665Z,101793.00
2018-06-28T08:16:50.031Z,101788.63
2018-06-28T08:19:18.324Z,101800.55
2018-06-28T08:21:46.590Z,101795.19
2018-06-28T08:24:14.829Z,101792.50
2018-06-28T08:26:43.061Z,101796.36
2018-06-28T08:29:11.801Z,101790.14
2018-06-28T08:31:40.160Z,101799.89
2018-06-28T08:34:08.477Z,101796.19
2018-06-28T08:36:36.767Z,101793.67
2018-06-28T08:39:07.521Z,101797.00
2018-06-28T08:41:35.994Z,101791.78
2018-06-28T08:44:04.363Z,101789.09
2018-06-28T08:46:32.796Z,101791.44
2018-06-28T08:49:01.114Z,101792.12
2018-06-28T08:51:29.293Z,101789.39
2018-06-28T08:53:57.553Z,101789.89
2018-06-28T08:56:25.813Z,101788.04
2018-06-28T08:58:54.089Z,101787.20
2018-06-28T09:01:22.328Z,101788.70
2018-06-28T09:03:50.612Z,101787.69
2018-06-28T09:06:19.117Z,101785.97
2018-06-28T09:08:47.426Z,101783.11
2018-06-28T09:11:15.679Z,101785.46
2018-06-28T09:13:43.952Z,101779.41
2018-06-28T09:16:12.286Z,101780.91
2018-06-28T09:18:40.548Z,101780.24
2018-06-28T09:21:08.837Z,101780.07
2018-06-28T09:23:37.090Z,101786.63
2018-06-28T09:26:05.429Z,101786.97
2018-06-28T09:28:33.721Z,101778.56
2018-06-28T09:31:01.985Z,101773.69
2018-06-28T09:33:30.221Z,101783.95
2018-06-28T09:35:58.464Z,101778.73
2018-06-28T09:38:26.697Z,101774.02
2018-06-28T09:40:54.965Z,101768.47
2018-06-28T09:43:23.261Z,101764.38
2018-06-28T09:45:51.513Z,101754.45
2018-06-28T09:48:19.765Z,101765.19
2018-06-28T09:50:48.034Z,101761.63
2018-06-28T09:53:16.344Z,101756.56
2018-06-28T09:55:44.709Z,101747.09
2018-06-28T09:58:13.042Z,101752.94
2018-06-28T10:00:43.844Z,101743.33
2018-06-28T10:03:12.784Z,101741.42
2018-06-28T10:05:41.093Z,101742.75
2018-06-28T10:08:10.085Z,101738.33
2018-06-28T10:10:38.281Z,101738.94
2018-06-28T10:13:06.613Z,101732.36
2018-06-28T10:15:34.927Z,101737.72
2018-06-28T10:18:03.238Z,101731.58
2018-06-28T10:20:31.494Z,101732.88
2018-06-28T10:22:59.768Z,101722.10
2018-06-28T10:25:28.060Z,101720.70
2018-06-28T10:27:56.321Z,101718.48
2018-06-28T10:30:24.519Z,101722.31
2018-06-28T10:32:52.806Z,101719.55
2018-06-28T10:35:21.045Z,101713.77
2018-06-28T10:37:49.333Z,101711.17
2018-06-28T10:40:17.590Z,101709.83
2018-06-28T10:42:45.945Z,101702.94
2018-06-28T10:45:14.363Z,101699.42
2018-06-28T10:47:42.636Z,101687.81
2018-06-28T10:50:11.421Z,101695.36
2018-06-28T10:52:39.697Z,101702.52
2018-06-28T10:55:07.941Z,101695.23
2018-06-28T10:57:36.293Z,101691.55
2018-06-28T11:00:04.867Z,101689.08
2018-06-28T11:02:33.180Z,101684.83
2018-06-28T11:05:01.413Z,101681.63
2018-06-28T11:07:29.750Z,101670.70
2018-06-28T11:09:58.005Z,101677.14
2018-06-28T11:12:26.223Z,101668.02
2018-06-28T11:14:54.509Z,101669.19
2018-06-28T11:17:22.761Z,101664.31
2018-06-28T11:19:51.018Z,101658.33
2018-06-28T11:22:19.266Z,101658.61
2018-06-28T11:24:47.528Z,101663.73
2018-06-28T11:27:15.774Z,101655.17
2018-06-28T11:29:44.029Z,101643.18
2018-06-28T11:32:12.264Z,101652.48
2018-06-28T11:34:40.511Z,101650.34
2018-06-28T11:37:08.789Z,101641.33
2018-06-28T11:39:37.033Z,101633.84
2018-06-28T11:42:05.416Z,101641.33
2018-06-28T11:44:33.641Z,101638.52
2018-06-28T11:47:01.897Z,101630.91
2018-06-28T11:49:30.128Z,101630.22
2018-06-28T11:51:58.352Z,101620.41
2018-06-28T11:54:26.603Z,101626.87
2018-06-28T11:56:54.855Z,101622.36
2018-06-28T11:59:23.166Z,101621.77
2018-06-28T12:01:51.633Z,101609.94
2018-06-28T12:04:19.933Z,101611.95
2018-06-28T12:06:48.173Z,101606.05
2018-06-28T12:09:16.448Z,101604.73
2018-06-28T12:11:44.756Z,101608.90
2018-06-28T12:14:13.029Z,101600.48
2018-06-28T12:16:41.304Z,101600.86
2018-06-28T12:19:09.565Z,101593.23
2018-06-28T12:21:37.836Z,101593.97
2018-06-28T12:24:06.390Z,101596.55
2018-06-28T12:26:34.625Z,101592.56
2018-06-28T12:29:02.928Z,101592.64
2018-06-28T12:31:31.180Z,101586.07
2018-06-28T12:33:59.427Z,101591.05
2018-06-28T12:36:27.740Z,101589.51
2018-06-28T12:38:56.090Z,101578.41
2018-06-28T12:41:24.453Z,101581.16
2018-06-28T12:43:52.696Z,101577.45
2018-06-28T12:46:26.615Z,101578.16
2018-06-28T12:48:55.850Z,101574.78
2018-06-28T12:51:34.197Z,101572.06
2018-06-28T12:54:02.441Z,101568.52
2018-06-28T12:56:31.939Z,101565.79
2018-06-28T12:59:02.627Z,101564.37
2018-06-28T13:01:31.177Z,101563.67
2018-06-28T13:03:59.592Z,101560.13
2018-06-28T13:06:27.856Z,101551.41
2018-06-28T13:08:56.654Z,101555.66
2018-06-28T13:11:25.364Z,101549.17
2018-06-28T13:13:53.843Z,101539.55
2018-06-28T13:16:23.190Z,101539.05
2018-06-28T13:18:51.472Z,101531.30
2018-06-28T13:21:19.693Z,101537.85
2018-06-28T13:23:47.973Z,101532.48
2018-06-28T13:26:17.150Z,101536.39
2018-06-28T13:28:45.966Z,101536.81
2018-06-28T13:31:14.361Z,101537.11
2018-06-28T13:33:42.720Z,101528.80
2018-06-28T13:36:10.968Z,101526.38
2018-06-28T13:38:39.221Z,101519.84
2018-06-28T13:41:07.826Z,101516.64
2018-06-28T13:43:35.912Z,101513.98
2018-06-28T13:46:04.185Z,101500.70
2018-06-28T13:48:32.440Z,101493.52
2018-06-28T13:51:00.953Z,101493.82
2018-06-28T13:53:29.236Z,101496.50
2018-06-28T13:55:57.483Z,101496.36
2018-06-28T13:58:25.725Z,101488.46
2018-06-28T14:00:54.027Z,101487.13
2018-06-28T14:03:22.468Z,101485.86
2018-06-28T14:05:50.563Z,101476.94
2018-06-28T14:08:18.869Z,101483.60
2018-06-28T14:10:47.141Z,101480.81
2018-06-28T14:13:15.615Z,101478.30
2018-06-28T14:15:43.995Z,101475.40
2018-06-28T14:18:12.339Z,101471.98
2018-06-28T14:20:40.645Z,101462.44
2018-06-28T14:23:09.034Z,101460.55
2018-06-28T14:25:37.349Z,101458.83
2018-06-28T14:28:05.749Z,101456.52
2018-06-28T14:30:34.003Z,101455.39
2018-06-28T14:33:02.337Z,101452.64
2018-06-28T14:35:30.711Z,101454.30
2018-06-28T14:37:58.959Z,101461.97
2018-06-28T14:40:27.301Z,101454.09
2018-06-28T14:42:55.609Z,101452.72
2018-06-28T14:45:23.965Z,101454.09
2018-06-28T14:47:52.256Z,101448.61
2018-06-28T14:50:20.630Z,101450.94
2018-06-28T14:52:48.901Z,101449.16
2018-06-28T14:55:17.184Z,101447.16
2018-06-28T14:57:45.585Z,101446.17
2018-06-28T15:00:13.845Z,101444.57
2018-06-28T15:02:42.080Z,101439.44
2018-06-28T15:05:10.402Z,101432.53
2018-06-28T15:07:38.653Z,101427.63
2018-06-28T15:10:06.933Z,101421.02
2018-06-28T15:12:35.168Z,101416.48
2018-06-28T15:15:03.481Z,101419.63
2018-06-28T15:17:31.757Z,101417.55
2018-06-28T15:19:59.984Z,101413.31
2018-06-28T15:22:28.239Z,101411.73
2018-06-28T15:24:56.505Z,101403.41
2018-06-28T15:27:24.798Z,101397.94
2018-06-28T15:29:52.997Z,101395.97
2018-06-28T15:32:21.253Z,101402.80
2018-06-28T15:34:49.487Z,101396.96
2018-06-28T15:37:17.775Z,101399.87
2018-06-28T15:39:46.032Z,101398.84
2018-06-28T15:42:14.378Z,101396.95
2018-06-28T15:44:42.616Z,101399.97
2018-06-28T15:47:10.922Z,101390.11
2018-06-28T15:49:39.216Z,101397.00
2018-06-28T15:52:07.602Z,101392.83
2018-06-28T15:54:35.862Z,101394.99
2018-06-28T15:57:04.153Z,101384.38
2018-06-28T15:59:32.402Z,101387.03
2018-06-28T16:02:00.666Z,101394.23
2018-06-28T16:04:28.953Z,101393.47
2018-06-28T16:06:57.292Z,101396.36
2018-06-28T16:09:25.671Z,101391.44
2018-06-28T16:11:53.909Z,101388.47
2018-06-28T16:14:22.189Z,101386.16
2018-06-28T16:16:50.501Z,101387.17
2018-06-28T16:19:18.813Z,101390.98
2018-06-28T16:21:47.117Z,101388.11
2018-06-28T16:24:15.393Z,101389.17
2018-06-28T16:26:45.047Z,101384.56
2018-06-28T16:29:14.169Z,101381.68
2018-06-28T16:31:43.102Z,101377.56
2018-06-28T16:34:12.037Z,101382.91
2018-06-28T16:36:40.511Z,101383.17
2018-06-28T16:39:10.288Z,101374.09
2018-06-28T16:41:38.682Z,101372.66
2018-06-28T16:44:07.093Z,101375.95
2018-06-28T16:46:35.496Z,101382.84
2018-06-28T16:49:03.817Z,101366.77
2018-06-28T16:51:32.089Z,101374.19
2018-06-28T16:54:00.393Z,101374.39
2018-06-28T16:56:28.673Z,101384.75
2018-06-28T16:58:57.085Z,101367.88
2018-06-28T17:01:25.379Z,101372.12
2018-06-28T17:03:53.657Z,101364.02
2018-06-28T17:06:21.894Z,101360.45
2018-06-28T17:08:50.210Z,101360.84
2018-06-28T17:11:18.500Z,101360.16
2018-06-28T17:13:46.741Z,101352.28
2018-06-28T17:16:15.005Z,101359.84
2018-06-28T17:18:43.328Z,101362.44
2018-06-28T17:21:11.631Z,101354.05
2018-06-28T17:23:39.886Z,101351.84
2018-06-28T17:26:08.132Z,101351.59
2018-06-28T17:28:36.365Z,101353.14
2018-06-28T17:31:04.641Z,101351.05
2018-06-28T17:33:32.949Z,101357.09
2018-06-28T17:36:01.205Z,101354.02
2018-06-28T17:38:29.468Z,101349.66
2018-06-28T17:40:57.725Z,101355.71
2018-06-28T17:43:25.999Z,101347.72
2018-06-28T17:45:54.307Z,101352.40
2018-06-28T17:48:22.586Z,101351.87
2018-06-28T17:50:50.808Z,101351.78
2018-06-28T17:53:19.059Z,101357.52
2018-06-28T17:55:47.320Z,101351.83
2018-06-28T17:58:15.628Z,101357.30
2018-06-28T18:00:43.918Z,101350.39
2018-06-28T18:03:12.175Z,101350.31
2018-06-28T18:05:40.421Z,101354.90
2018-06-28T18:08:08.837Z,101359.37
2018-06-28T18:10:37.124Z,101358.98
2018-06-28T18:13:06.529Z,101355.50
2018-06-28T18:15:34.845Z,101358.81
2018-06-28T18:18:03.102Z,101360.53
2018-06-28T18:20:31.443Z,101358.73
2018-06-28T18:22:59.792Z,101358.24
2018-06-28T18:25:28.062Z,101359.92
2018-06-28T18:27:56.389Z,101361.01
2018-06-28T18:30:24.748Z,101360.55
2018-06-28T18:32:53.286Z,101353.69
2018-06-28T18:35:21.624Z,101354.30
2018-06-28T18:37:49.900Z,101357.39
2018-06-28T18:40:18.145Z,101355.64
2018-06-28T18:42:46.536Z,101351.01
2018-06-28T18:45:15.307Z,101353.73
2018-06-28T18:47:43.644Z,101337.24
2018-06-28T18:50:12.212Z,101351.72
2018-06-28T18:52:40.674Z,101359.64
2018-06-28T18:55:09.111Z,101354.76
2018-06-28T18:57:37.530Z,101353.83
2018-06-28T19:00:06.288Z,101356.64
2018-06-28T19:02:36.913Z,101357.73
2018-06-28T19:05:05.640Z,101357.95
2018-06-28T19:07:34.263Z,101360.23
2018-06-28T19:10:07.948Z,101363.78
2018-06-28T19:12:36.400Z,101362.02
2018-06-28T19:15:10.111Z,101359.97
2018-06-28T19:17:38.561Z,101362.36
2018-06-28T19:20:07.060Z,101365.72
2018-06-28T19:22:40.811Z,101364.98
2018-06-28T19:25:09.214Z,101368.52
2018-06-28T19:27:37.693Z,101371.75
2018-06-28T19:30:11.333Z,101371.43
2018-06-28T19:32:39.820Z,101375.89
2018-06-28T19:35:08.215Z,101376.72
2018-06-28T19:37:42.108Z,101385.28
2018-06-28T19:40:16.001Z,101371.73
2018-06-28T19:42:49.784Z,101386.19
2018-06-28T19:45:18.405Z,101384.55
2018-06-28T19:47:46.880Z,101392.23
2018-06-28T19:50:20.606Z,101379.33
2018-06-28T19:53:00.733Z,101385.14
2018-06-28T19:55:29.143Z,101397.83
2018-06-28T19:57:57.610Z,101398.12
2018-06-28T20:00:31.372Z,101399.59
2018-06-28T20:03:06.133Z,101407.95
2018-06-28T20:05:34.499Z,101389.09
2018-06-28T20:08:03.150Z,101407.29
2018-06-28T20:10:31.591Z,101406.73
2018-06-28T20:13:05.166Z,101407.25
2018-06-28T20:15:50.445Z,101405.34
2018-06-28T20:18:24.153Z,101411.38
2018-06-28T20:20:52.529Z,101410.81
2018-06-28T20:23:21.317Z,101414.19
2018-06-28T20:25:50.059Z,101413.22
2018-06-28T20:28:23.563Z,101422.20
2018-06-28T20:30:57.319Z,101425.59
2018-06-28T20:33:30.907Z,101426.37
2018-06-28T20:35:59.909Z,101421.98
2018-06-28T20:40:55.879Z,101417.23
2018-06-28T20:43:24.319Z,101416.50
2018-06-28T20:45:52.873Z,101419.39
2018-06-28T20:48:21.531Z,101426.72
2018-06-28T20:50:50.533Z,101430.83
2018-06-28T20:53:18.911Z,101426.66
2018-06-28T20:55:47.323Z,101427.72
2018-06-28T20:58:15.647Z,101425.73
2018-06-28T21:00:44.003Z,101423.73
2018-06-28T21:03:12.459Z,101424.12
2018-06-28T21:05:40.822Z,101426.87
2018-06-28T21:08:09.306Z,101432.66
2018-06-28T21:10:37.628Z,101434.61
2018-06-28T21:13:06.244Z,101431.11
2018-06-28T21:15:34.650Z,101431.17
2018-06-28T21:18:03.051Z,101438.33
2018-06-28T21:20:31.436Z,101439.54
2018-06-28T21:22:59.799Z,101428.81
2018-06-28T21:25:28.251Z,101427.02
2018-06-28T21:27:56.599Z,101430.92
2018-06-28T21:30:24.990Z,101429.47
2018-06-28T21:32:53.391Z,101435.89
2018-06-28T21:35:21.857Z,101435.11
2018-06-28T21:37:50.199Z,101432.66
2018-06-28T21:40:18.676Z,101430.05
2018-06-28T21:42:47.020Z,101435.49
2018-06-28T21:45:15.411Z,101429.97
2018-06-28T21:47:43.813Z,101438.23
2018-06-28T21:50:12.244Z,101435.59
2018-06-28T21:52:40.648Z,101434.02
2018-06-28T21:55:09.069Z,101440.61
2018-06-28T21:57:37.444Z,101434.57
2018-06-28T22:00:07.652Z,101443.54
2018-06-28T22:02:36.007Z,101438.20
2018-06-28T22:05:04.428Z,101438.93
2018-06-28T22:07:32.855Z,101442.61
2018-06-28T22:10:01.282Z,101436.25
2018-06-28T22:12:29.655Z,101437.27
2018-06-28T22:14:58.069Z,101432.53
2018-06-28T22:17:26.468Z,101435.88
2018-06-28T22:19:54.888Z,101436.23
2018-06-28T22:22:23.259Z,101445.82
2018-06-28T22:24:51.655Z,101436.85
2018-06-28T22:27:20.042Z,101443.73
2018-06-28T22:29:48.456Z,101442.38
2018-06-28T22:32:16.861Z,101433.46
2018-06-28T22:34:45.286Z,101441.95
2018-06-28T22:37:13.797Z,101433.55
2018-06-28T22:39:42.330Z,101434.89
2018-06-28T22:42:10.756Z,101433.03
2018-06-28T22:44:39.184Z,101434.89
2018-06-28T22:47:07.562Z,101434.53
2018-06-28T22:49:35.967Z,101436.25
2018-06-28T22:52:04.368Z,101444.33
2018-06-28T22:54:32.782Z,101444.01
2018-06-28T22:57:01.186Z,101440.02
2018-06-28T22:59:29.643Z,101439.25
2018-06-28T23:01:58.122Z,101433.08
2018-06-28T23:04:26.564Z,101433.45
2018-06-28T23:06:55.072Z,101437.67
2018-06-28T23:09:23.374Z,101440.87
2018-06-28T23:11:51.777Z,101438.37
2018-06-28T23:14:20.212Z,101449.00
2018-06-28T23:16:48.599Z,101451.88
2018-06-28T23:19:16.977Z,101450.02
2018-06-28T23:21:45.335Z,101446.05
2018-06-28T23:24:13.715Z,101456.83
2018-06-28T23:26:42.089Z,101449.44
2018-06-28T23:29:10.506Z,101445.41
2018-06-28T23:31:38.951Z,101442.06
2018-06-28T23:34:07.372Z,101442.94
2018-06-28T23:36:35.839Z,101448.14
2018-06-28T23:39:06.507Z,101442.42
2018-06-28T23:41:34.851Z,101444.94
2018-06-28T23:44:03.181Z,101444.42
2018-06-28T23:46:31.510Z,101444.79
2018-06-28T23:48:59.957Z,101448.17
2018-06-28T23:51:28.299Z,101448.36
2018-06-28T23:53:56.717Z,101450.25
2018-06-28T23:56:25.135Z,101444.58
2018-06-28T23:58:53.552Z,101447.73
